createdAt,value
2018-12-11T03:14:08.366Z,4.72
2018-12-11T03:19:13.146Z,4.20
2018-12-11T03:21:42.204Z,4.70
2018-12-11T03:24:11.247Z,4.93
2018-12-11T03:26:40.284Z,3.93
2018-12-11T03:29:09.336Z,3.27
2018-12-11T03:31:38.376Z,3.95
2018-12-11T03:34:07.466Z,5.40
2018-12-11T03:36:36.519Z,3.57
2018-12-11T03:39:05.562Z,3.10
2018-12-11T03:41:34.603Z,3.40
2018-12-11T03:46:39.384Z,3.78
2018-12-11T03:49:08.449Z,3.62
2018-12-11T03:54:14.868Z,3.80
2018-12-11T03:56:43.885Z,3.10
2018-12-11T03:59:12.936Z,3.10
2018-12-11T04:01:42.863Z,3.40
2018-12-11T04:04:11.904Z,4.28
2018-12-11T04:06:40.974Z,3.57
2018-12-11T04:09:10.027Z,4.47
2018-12-11T04:11:39.088Z,3.70
2018-12-11T04:14:08.140Z,4.20
2018-12-11T04:16:37.167Z,3.90
2018-12-11T04:19:07.180Z,4.07
2018-12-11T04:21:36.218Z,3.40
2018-12-11T04:24:07.292Z,3.67
2018-12-11T04:26:36.294Z,4.90
2018-12-11T04:29:05.366Z,4.50
2018-12-11T04:34:14.196Z,4.40
2018-12-11T04:36:43.221Z,4.50
2018-12-11T04:39:12.247Z,4.40
2018-12-11T04:41:41.291Z,4.50
2018-12-11T04:44:10.346Z,4.50
2018-12-11T04:49:15.120Z,4.60
2018-12-11T04:51:44.157Z,4.80
2018-12-11T04:54:13.289Z,4.40
2018-12-11T04:56:42.428Z,4.55
2018-12-11T04:59:11.547Z,3.90
2018-12-11T05:01:40.694Z,3.87
2018-12-11T05:04:11.061Z,3.80
2018-12-11T05:06:40.715Z,4.60
2018-12-11T05:09:10.151Z,4.60
2018-12-11T05:11:39.213Z,4.50
2018-12-11T05:14:09.331Z,4.07
2018-12-11T05:16:38.412Z,4.00
2018-12-11T05:19:07.536Z,3.60
2018-12-11T05:21:57.665Z,4.55
2018-12-11T05:24:26.772Z,3.60
2018-12-11T05:26:55.880Z,4.10
2018-12-11T05:29:25.883Z,3.90
2018-12-11T05:31:56.574Z,4.80
2018-12-11T05:34:25.738Z,3.57
2018-12-11T05:36:55.825Z,3.87
2018-12-11T05:42:00.623Z,4.30
2018-12-11T05:44:30.591Z,3.70
2018-12-11T05:46:59.904Z,3.53
2018-12-11T05:49:28.982Z,3.07
2018-12-11T05:51:58.144Z,3.80
2018-12-11T05:54:27.622Z,4.10
2018-12-11T05:56:56.667Z,3.70
2018-12-11T05:59:25.751Z,3.43
2018-12-11T06:01:54.845Z,2.87
2018-12-11T06:04:24.103Z,3.40
2018-12-11T06:06:53.316Z,4.00
2018-12-11T06:09:24.579Z,3.62
2018-12-11T06:11:54.985Z,4.30
2018-12-11T06:14:24.187Z,3.23
2018-12-11T06:16:53.410Z,3.70
2018-12-11T06:19:24.275Z,4.07
2018-12-11T06:21:53.446Z,4.07
2018-12-11T06:24:22.496Z,3.20
2018-12-11T06:29:28.649Z,4.30
2018-12-11T06:31:57.674Z,3.47
2018-12-11T06:34:27.634Z,2.60
2018-12-11T06:36:56.682Z,2.80
2018-12-11T06:39:25.732Z,3.70
2018-12-11T06:44:30.503Z,3.00
2018-12-11T06:46:59.587Z,3.53
2018-12-11T06:52:04.358Z,3.40
2018-12-11T06:54:33.407Z,3.00
2018-12-11T06:57:02.545Z,2.73
2018-12-11T06:59:31.574Z,2.80
2018-12-11T07:02:00.606Z,2.77
2018-12-11T07:04:29.654Z,2.67
2018-12-11T07:06:58.685Z,3.17
2018-12-11T07:09:27.726Z,3.60
2018-12-11T07:11:56.777Z,2.10
2018-12-11T07:17:01.513Z,2.80
2018-12-11T07:19:30.569Z,2.63
2018-12-11T07:21:59.642Z,3.23
2018-12-11T07:24:28.672Z,3.27
2018-12-11T07:26:57.709Z,3.60
2018-12-11T07:29:26.752Z,2.75
2018-12-11T07:31:55.790Z,2.50
2018-12-11T07:34:24.831Z,2.97
2018-12-11T07:36:53.868Z,3.07
2018-12-11T07:39:22.918Z,3.37
2018-12-11T07:41:57.354Z,3.90
2018-12-11T07:47:02.073Z,3.30
2018-12-11T07:49:32.116Z,3.80
2018-12-11T07:52:01.482Z,4.07
2018-12-11T07:54:30.542Z,3.73
2018-12-11T07:56:59.593Z,3.60
2018-12-11T07:59:28.689Z,2.80
2018-12-11T08:01:57.730Z,4.07
2018-12-11T08:04:27.939Z,3.60
2018-12-11T08:09:35.118Z,4.20
2018-12-11T08:12:08.297Z,3.37
2018-12-11T08:17:09.647Z,4.00
2018-12-11T08:19:38.806Z,3.57
2018-12-11T08:22:07.861Z,3.37
2018-12-11T08:24:47.040Z,3.90
2018-12-11T08:27:16.069Z,3.13
2018-12-11T08:29:45.176Z,3.13
2018-12-11T08:32:14.162Z,3.53
2018-12-11T08:37:18.935Z,4.00
2018-12-11T08:39:47.962Z,3.63
2018-12-11T08:42:17.004Z,4.37
2018-12-11T08:44:51.126Z,4.00
2018-12-11T08:47:15.091Z,4.32
2018-12-11T08:49:44.130Z,3.63
2018-12-11T08:52:13.172Z,4.97
2018-12-11T08:54:42.211Z,3.77
2018-12-11T08:57:12.146Z,3.67
2018-12-11T08:59:41.290Z,3.53
2018-12-11T09:02:15.870Z,3.50
2018-12-11T09:04:50.364Z,3.93
2018-12-11T09:07:24.901Z,3.43
2018-12-11T09:09:59.463Z,3.43
2018-12-11T09:17:57.944Z,4.30
2018-12-11T09:20:32.663Z,3.90
2018-12-11T09:23:07.307Z,3.50
2018-12-11T09:25:42.018Z,4.17
2018-12-11T09:28:16.736Z,3.90
2018-12-11T09:30:51.271Z,3.43
2018-12-11T09:33:25.912Z,3.80
2018-12-11T09:41:19.195Z,4.10
2018-12-11T09:43:48.240Z,4.40
2018-12-11T09:46:17.287Z,4.50
2018-12-11T09:48:46.327Z,3.10
2018-12-11T09:51:17.886Z,3.20
2018-12-11T09:53:45.336Z,3.60
2018-12-11T09:56:14.364Z,3.27
2018-12-11T09:58:44.311Z,3.87
2018-12-11T10:03:49.101Z,3.70
2018-12-11T10:06:18.467Z,3.60
2018-12-11T10:08:47.488Z,3.67
2018-12-11T10:11:16.553Z,4.37
2018-12-11T10:13:45.607Z,4.53
2018-12-11T10:16:14.774Z,3.50
2018-12-11T10:18:43.838Z,3.80
2018-12-11T10:21:21.816Z,4.07
2018-12-11T10:23:51.740Z,4.00
2018-12-11T10:26:20.823Z,4.83
2018-12-11T10:28:49.855Z,3.60
2018-12-11T10:31:18.880Z,3.83
2018-12-11T10:33:49.299Z,3.93
2018-12-11T10:36:18.347Z,3.95
2018-12-11T10:38:47.751Z,4.37
2018-12-11T10:41:16.770Z,4.13
2018-12-11T10:43:45.883Z,4.00
2018-12-11T10:46:14.890Z,3.33
2018-12-11T10:48:49.667Z,3.83
2018-12-11T10:51:24.127Z,3.73
2018-12-11T10:53:58.713Z,3.50
2018-12-11T10:56:33.229Z,3.53
2018-12-11T11:04:19.891Z,3.83
2018-12-11T11:06:48.985Z,4.20
2018-12-11T11:09:18.024Z,4.90
2018-12-11T11:11:47.067Z,3.63
2018-12-11T11:14:17.134Z,4.73
2018-12-11T11:19:21.867Z,5.73
2018-12-11T11:21:50.908Z,7.28
2018-12-11T11:24:19.952Z,5.80
2018-12-11T11:26:49.009Z,7.40
2018-12-11T11:29:24.309Z,7.37
2018-12-11T11:31:53.342Z,5.80
